Time;durP1;ratioP1;P1;durP2;ratioP2;P2;SDS_P1;SDS_P2;PMS_P1;PMS_P2;Temp;Humidity;BMP_temperature;BMP_pressure;BME280_temperature;BME280_humidity;BME280_pressure;Samples;Min_cycle;Max_cycle;Signal;HPM_P1;HPM_P2
2022/10/04 00:06:18;;;;;;;15.05;6.43;;;;;;;9.65;100.00;102251.09;5333981;23;20083;-89
2022/10/04 00:09:46;;;;;;;;;;;;;;;;;;;;;
2022/10/04 00:20:02;;;;;;;;;;;;;;;;;;;;;
2022/10/04 00:26:35;;;;;;;17.38;6.78;;;;;;;9.80;100.00;102259.63;4913940;29;20055;-89
2022/10/04 00:40:53;;;;;;;;;;;;;;;;;;;;;
2022/10/04 00:57:39;;;;;;;13.48;6.53;;;;;;;8.98;100.00;102238.91;4798972;29;20055;-88
2022/10/04 01:34:43;;;;;;;14.35;6.97;;;;;;;8.35;100.00;102176.16;4835477;29;20045;-89
2022/10/04 01:51:35;;;;;;;15.32;7.13;;;;;;;8.16;100.00;102167.19;4706880;30;20112;-89
2022/10/04 01:54:18;;;;;;;16.80;6.95;;;;;;;8.31;100.00;102175.78;4712234;30;20069;-89
2022/10/04 02:53:46;;;;;;;15.68;8.80;;;;;;;7.84;100.00;102100.31;4898166;29;20518;-91
2022/10/04 02:59:38;;;;;;;18.75;10.07;;;;;;;7.71;100.00;102075.25;4820534;29;20057;-92
2022/10/04 03:05:59;;;;;;;20.10;11.20;;;;;;;7.92;100.00;102070.72;4766746;30;20819;-92
2022/10/04 03:08:43;;;;;;;27.65;11.70;;;;;;;7.94;100.00;102076.66;4766639;30;20115;-91
2022/10/04 03:11:29;;;;;;;24.58;11.55;;;;;;;7.83;100.00;102046.09;4765941;30;20047;-92
2022/10/04 03:17:02;;;;;;;18.73;10.30;;;;;;;7.84;100.00;102069.09;4791016;29;20537;-91
2022/10/04 03:19:30;;;;;;;20.90;10.23;;;;;;;7.77;100.00;102068.28;4855079;29;20045;-91
2022/10/04 03:31:26;;;;;;;24.03;11.90;;;;;;;7.67;100.00;102042.00;5217292;23;20128;-93
2022/10/04 03:41:27;;;;;;;23.92;11.07;;;;;;;7.73;100.00;102049.19;4759012;30;20479;-94
2022/10/04 03:44:30;;;;;;;19.77;10.90;;;;;;;7.57;100.00;102022.97;4767307;30;20126;-96
2022/10/04 03:47:39;;;;;;;20.05;10.30;;;;;;;7.62;100.00;102044.50;4766919;30;20048;-95
2022/10/04 03:54:06;;;;;;;17.55;10.10;;;;;;;7.47;100.00;102036.72;4770842;30;20063;-94
2022/10/04 04:12:08;;;;;;;16.10;10.48;;;;;;;7.26;100.00;102008.44;4920327;23;20052;-93
2022/10/04 04:21:48;;;;;;;21.55;11.77;;;;;;;7.49;100.00;102028.50;4900122;29;20096;-93
2022/10/04 04:24:54;;;;;;;23.75;11.23;;;;;;;7.50;100.00;102027.47;4917495;29;20527;-92
2022/10/04 04:27:32;;;;;;;27.45;11.45;;;;;;;7.41;100.00;102009.03;4937066;23;20499;-93
2022/10/04 04:58:20;;;;;;;20.85;10.95;;;;;;;7.71;100.00;102000.56;4898893;23;20222;-91
2022/10/04 05:01:05;;;;;;;25.15;11.98;;;;;;;7.78;100.00;102000.53;4875290;29;20861;-91
2022/10/04 05:24:42;;;;;;;17.88;9.40;;;;;;;7.48;100.00;102016.22;4908282;23;20036;-92
2022/10/04 05:37:21;;;;;;;22.33;10.07;;;;;;;7.38;100.00;102005.97;4912811;29;20073;-87
2022/10/04 05:40:22;;;;;;;17.10;8.97;;;;;;;7.32;100.00;102010.28;4901961;29;20464;-88
2022/10/04 05:43:32;;;;;;;15.77;9.03;;;;;;;7.22;100.00;102001.88;4913019;29;20308;-89
2022/10/04 05:49:59;;;;;;;15.93;8.73;;;;;;;7.19;100.00;101997.78;4884295;29;20060;-88
2022/10/04 06:34:37;;;;;;;20.88;8.05;;;;;;;7.93;100.00;102040.31;4817818;29;20128;-84
2022/10/04 06:37:57;;;;;;;18.15;8.57;;;;;;;7.93;100.00;102015.50;4814417;29;20502;-87
2022/10/04 06:40:44;;;;;;;14.27;7.82;;;;;;;8.20;100.00;102034.91;4777126;29;20043;-88
2022/10/04 06:48:23;;;;;;;14.88;7.07;;;;;;;8.28;100.00;102025.81;5537213;23;20044;-89
2022/10/04 06:50:58;;;;;;;16.20;7.60;;;;;;;8.27;100.00;102025.00;4914271;29;20143;-87
2022/10/04 06:53:45;;;;;;;16.20;6.85;;;;;;;8.28;100.00;102031.16;4916312;29;20036;-88
2022/10/04 07:22:42;;;;;;;19.02;6.45;;;;;;;8.28;100.00;102010.59;5226320;23;20059;-88
2022/10/04 07:37:07;;;;;;;14.73;5.80;;;;;;;8.63;100.00;101991.53;4825232;29;20063;-90
2022/10/04 07:40:25;;;;;;;18.03;7.10;;;;;;;8.86;100.00;102013.34;4789375;29;20292;-91
2022/10/04 08:01:31;;;;;;;20.55;8.13;;;;;;;9.58;100.00;102017.47;4695265;30;20108;-93
2022/10/04 08:20:49;;;;;;;14.35;6.18;;;;;;;10.15;100.00;101985.91;4854100;29;20493;-92
2022/10/04 08:36:42;;;;;;;13.20;5.57;;;;;;;10.70;100.00;101986.81;4914516;29;20051;-90
2022/10/04 08:39:58;;;;;;;16.33;4.90;;;;;;;10.80;100.00;102014.91;5222317;23;20589;-91
2022/10/04 08:46:42;;;;;;;11.35;5.72;;;;;;;10.63;100.00;102012.91;4828355;29;20048;-91
2022/10/04 08:49:56;;;;;;;9.50;5.00;;;;;;;10.73;100.00;102015.84;4839712;29;20053;-89
2022/10/04 08:52:50;;;;;;;11.85;5.18;;;;;;;10.77;100.00;102002.00;4877673;29;20041;-93
2022/10/04 08:55:33;;;;;;;11.70;5.57;;;;;;;10.97;100.00;102017.75;4878850;29;20033;-92
2022/10/04 08:58:44;;;;;;;12.15;5.55;;;;;;;11.06;100.00;102009.16;4892133;29;20064;-89
2022/10/04 09:01:18;;;;;;;15.25;5.70;;;;;;;11.15;100.00;102016.84;4887830;29;20037;-92
2022/10/04 09:17:20;;;;;;;11.80;4.72;;;;;;;11.56;100.00;102038.44;4872218;29;20034;-92
2022/10/04 09:20:20;;;;;;;10.98;4.22;;;;;;;11.61;100.00;102028.63;4895770;29;20033;-90
2022/10/04 09:23:28;;;;;;;;;;;;;;;;;;;;;
2022/10/04 09:29:08;;;;;;;9.70;4.47;;;;;;;11.98;100.00;102016.75;4912155;29;20048;-92
2022/10/04 09:32:11;;;;;;;11.10;4.78;;;;;;;12.06;100.00;102013.72;4912734;29;20032;-91
2022/10/04 09:45:12;;;;;;;10.15;4.70;;;;;;;12.32;100.00;101999.97;4837982;29;20204;-92
2022/10/04 09:47:39;;;;;;;9.73;4.80;;;;;;;12.36;100.00;102001.91;4836107;29;20061;-92
2022/10/04 09:50:36;;;;;;;9.63;4.75;;;;;;;12.42;100.00;101992.06;4836767;29;20124;-92
2022/10/04 10:19:14;;;;;;;;;;;;;;;;;;;;;
2022/10/04 10:45:42;;;;;;;8.32;3.55;;;;;;;14.48;88.62;101977.88;4912420;29;20048;-86
2022/10/04 10:48:40;;;;;;;8.20;3.40;;;;;;;14.49;90.28;101984.09;4917759;29;20498;-96
2022/10/04 10:51:29;;;;;;;8.50;4.10;;;;;;;14.58;89.58;101979.03;4904129;29;20472;-94
2022/10/04 10:54:16;;;;;;;10.95;3.55;;;;;;;14.82;90.44;101995.72;4906201;29;20037;-93
2022/10/04 10:57:13;;;;;;;9.00;3.83;;;;;;;15.07;90.03;101999.69;5550985;23;20027;-93
2022/10/04 11:03:04;;;;;;;9.10;3.70;;;;;;;15.44;84.57;101979.91;4895481;29;20122;-92
2022/10/04 11:06:25;;;;;;;;;;;;;;;;;;;;;
2022/10/04 11:45:20;;;;;;;6.65;2.85;;;;;;;16.79;78.17;101949.41;4892825;29;20583;-95
2022/10/04 12:19:30;;;;;;;6.07;2.55;;;;;;;18.72;67.35;101931.84;4902223;29;20134;-93
2022/10/04 12:55:53;;;;;;;4.53;2.58;;;;;;;17.71;64.92;101877.00;4850239;29;20098;-94
2022/10/04 13:04:51;;;;;;;9.23;3.00;;;;;;;17.43;66.18;101842.50;4891277;29;20064;-93
2022/10/04 13:08:04;;;;;;;5.47;2.50;;;;;;;17.59;65.29;101863.00;4899492;29;20651;-95
2022/10/04 13:11:22;;;;;;;10.35;2.72;;;;;;;17.61;65.62;101866.25;4820196;29;20093;-96
2022/10/04 13:14:25;;;;;;;6.60;2.45;;;;;;;17.64;66.44;101854.03;4827240;29;20091;-96
2022/10/04 13:21:12;;;;;;;4.03;2.70;;;;;;;17.55;66.84;101857.34;4813443;29;20179;-88
2022/10/04 13:24:30;;;;;;;4.47;2.40;;;;;;;17.57;64.91;101843.50;4815158;29;20045;-87
2022/10/04 13:29:56;;;;;;;7.70;2.88;;;;;;;17.68;67.75;101838.81;5048586;23;20077;-86
2022/10/04 13:32:55;;;;;;;5.43;2.28;;;;;;;17.70;66.89;101842.06;4894987;29;20100;-86
2022/10/04 13:35:50;;;;;;;4.83;2.50;;;;;;;17.74;64.90;101840.41;4907326;29;20036;-82
2022/10/04 13:38:34;;;;;;;7.55;2.80;;;;;;;17.79;66.16;101853.94;4898741;29;20056;-82
2022/10/04 13:41:26;;;;;;;5.55;2.30;;;;;;;17.88;65.15;101846.03;4901909;29;20047;-82
2022/10/04 13:44:12;;;;;;;10.10;2.67;;;;;;;17.83;64.48;101851.47;4880574;29;20083;-83
2022/10/04 13:47:06;;;;;;;6.53;2.70;;;;;;;17.89;66.36;101850.34;4905761;29;20083;-84
2022/10/04 13:49:44;;;;;;;7.47;2.72;;;;;;;17.92;64.81;101866.03;4896881;29;20044;-79
2022/10/04 13:58:42;;;;;;;4.80;2.20;;;;;;;17.98;64.48;101843.25;4896477;29;20896;-81
2022/10/04 14:01:29;;;;;;;4.55;2.58;;;;;;;17.99;64.42;101831.31;4903079;29;20035;-83
2022/10/04 14:04:31;;;;;;;5.53;2.70;;;;;;;17.95;65.51;101829.44;4906572;29;20036;-81
2022/10/04 14:07:33;;;;;;;8.20;2.83;;;;;;;17.94;65.68;101816.97;4904768;29;20044;-81
2022/10/04 14:09:58;;;;;;;7.80;2.80;;;;;;;17.95;64.11;101815.88;4900089;29;20074;-82
2022/10/04 14:12:33;;;;;;;9.60;2.77;;;;;;;17.92;65.13;101803.69;4901157;29;20678;-85
2022/10/04 14:15:22;;;;;;;6.40;2.55;;;;;;;17.93;65.04;101797.16;4895734;29;20085;-84
2022/10/04 14:18:01;;;;;;;6.45;2.38;;;;;;;17.97;65.29;101792.78;4901805;29;20391;-84
2022/10/04 14:20:54;;;;;;;6.15;2.30;;;;;;;17.97;66.75;101792.00;4899370;29;20107;-82
2022/10/04 14:23:50;;;;;;;6.90;2.45;;;;;;;18.09;65.75;101789.75;4908166;29;20032;-86
2022/10/04 14:26:38;;;;;;;4.97;2.20;;;;;;;18.19;65.01;101791.56;4904117;29;20036;-85
2022/10/04 14:29:40;;;;;;;5.63;2.30;;;;;;;18.29;63.78;101787.94;4898636;29;20716;-86
2022/10/04 14:32:21;;;;;;;6.28;2.20;;;;;;;18.43;64.36;101785.34;4899943;29;20097;-84
2022/10/04 14:35:11;;;;;;;9.35;2.78;;;;;;;18.69;65.55;101777.72;4907389;29;20029;-84
2022/10/04 14:37:56;;;;;;;9.80;2.97;;;;;;;18.81;63.89;101763.72;4904272;29;20212;-83
2022/10/04 14:41:03;;;;;;;9.55;2.70;;;;;;;18.82;64.67;101770.75;4907451;29;20040;-84
2022/10/04 15:04:13;;;;;;;5.15;2.67;;;;;;;18.32;66.46;101765.66;4911731;29;20059;-86
2022/10/04 15:43:27;;;;;;;;;;;;;;;;;;;;;
2022/10/04 15:52:31;;;;;;;9.30;4.43;;;;;;;16.70;73.34;101745.34;4784268;30;20101;-89
2022/10/04 15:55:33;;;;;;;7.10;2.95;;;;;;;16.83;73.89;101759.34;4791211;29;20145;-87
2022/10/04 16:04:57;;;;;;;8.13;3.28;;;;;;;16.67;74.72;101770.25;4765678;30;20046;-87
2022/10/04 16:08:03;;;;;;;9.43;3.40;;;;;;;16.62;75.73;101770.25;4736206;30;20048;-85
2022/10/04 16:32:00;;;;;;;6.43;3.08;;;;;;;16.02;79.04;101779.84;4909928;29;20146;-91
2022/10/04 16:47:10;;;;;;;6.18;3.33;;;;;;;15.39;81.73;101788.16;4869386;29;20083;-90
2022/10/04 16:49:57;;;;;;;;;;;;;;;;;;;;;
2022/10/04 16:52:47;;;;;;;9.35;3.22;;;;;;;15.10;83.61;101797.53;4769056;29;20050;-87
2022/10/04 16:55:56;;;;;;;9.15;3.25;;;;;;;14.84;84.41;101785.81;4875728;29;20378;-88
2022/10/04 16:59:12;;;;;;;8.32;3.05;;;;;;;14.71;85.27;101791.69;4876102;29;20037;-88
2022/10/04 17:02:43;;;;;;;3.90;3.47;;;;;;;14.48;86.03;101772.94;4799330;29;20195;-87
2022/10/04 17:34:13;;;;;;;;;;;;;;;;;;;;;
2022/10/04 18:06:01;;;;;;;10.48;4.07;;;;;;;13.64;94.97;101812.97;4837169;29;20458;-92
2022/10/04 18:12:45;;;;;;;5.43;3.90;;;;;;;13.88;94.63;101826.94;4779496;29;20609;-92
2022/10/04 18:15:44;;;;;;;5.30;3.73;;;;;;;13.76;94.50;101802.06;4848833;29;20292;-93
2022/10/04 18:19:25;;;;;;;6.13;3.88;;;;;;;13.68;94.48;101783.66;4878357;29;20060;-93
2022/10/04 18:22:28;;;;;;;6.85;3.83;;;;;;;13.73;94.62;101802.56;4815625;29;20043;-92
2022/10/04 18:39:45;;;;;;;6.93;4.40;;;;;;;12.88;97.01;101755.31;5139885;23;20065;-93
2022/10/04 18:42:26;;;;;;;12.47;4.30;;;;;;;12.88;97.95;101774.16;4913937;29;20128;-94
2022/10/04 18:46:03;;;;;;;9.57;4.00;;;;;;;12.81;98.38;101774.34;4920828;29;20288;-93
2022/10/04 18:49:26;;;;;;;5.15;3.97;;;;;;;12.72;99.15;101784.72;4897931;29;20028;-94
2022/10/04 19:16:05;;;;;;;10.77;3.88;;;;;;;12.78;100.00;101796.34;5555723;23;20056;-93
2022/10/04 19:18:48;;;;;;;9.77;3.88;;;;;;;12.93;100.00;101792.25;4916919;29;20900;-93
2022/10/04 19:21:37;;;;;;;6.22;4.25;;;;;;;13.02;99.60;101788.03;4916464;29;20484;-92
2022/10/04 19:24:17;;;;;;;7.80;4.38;;;;;;;13.18;98.59;101797.91;4918818;29;20032;-92
2022/10/04 19:26:48;;;;;;;9.68;4.22;;;;;;;13.26;98.50;101787.78;4904375;29;20048;-93
2022/10/04 19:29:41;;;;;;;8.05;4.30;;;;;;;13.39;97.95;101790.06;4897979;29;20040;-93
2022/10/04 19:32:26;;;;;;;8.50;4.50;;;;;;;13.47;97.15;101794.22;4898605;29;20047;-91
2022/10/04 19:34:57;;;;;;;7.47;4.35;;;;;;;13.52;96.95;101786.19;4894426;29;20036;-91
2022/10/04 19:37:30;;;;;;;17.33;6.53;;;;;;;13.58;96.58;101781.69;4894587;29;20041;-91
2022/10/04 19:40:04;;;;;;;35.27;11.20;;;;;;;13.61;96.32;101784.66;4893768;29;20298;-92
2022/10/04 19:42:57;;;;;;;12.45;6.25;;;;;;;13.66;95.84;101778.53;4897547;29;20025;-92
2022/10/04 19:45:44;;;;;;;9.23;5.10;;;;;;;13.69;95.42;101774.50;4886224;29;20052;-92
2022/10/04 19:48:22;;;;;;;8.85;4.65;;;;;;;13.70;95.79;101776.94;4903738;29;20628;-92
2022/10/04 19:50:52;;;;;;;8.68;4.72;;;;;;;13.73;95.32;101775.63;4896716;29;20115;-91
2022/10/04 19:53:22;;;;;;;10.25;4.60;;;;;;;13.71;94.95;101765.09;4896201;29;20490;-92
2022/10/04 19:55:55;;;;;;;10.05;4.75;;;;;;;13.76;95.55;101775.91;4894731;29;20024;-93
2022/10/04 19:58:32;;;;;;;7.47;4.63;;;;;;;13.77;95.52;101769.47;4896699;29;20028;-92
2022/10/04 20:00:58;;;;;;;5.88;4.28;;;;;;;13.74;95.16;101758.41;4893500;29;20032;-93
2022/10/04 20:03:23;;;;;;;8.23;4.90;;;;;;;13.79;95.24;101763.81;4896389;29;20077;-93
2022/10/04 20:05:52;;;;;;;10.57;4.83;;;;;;;13.77;94.67;101766.78;4894541;29;20032;-92
2022/10/04 20:08:46;;;;;;;11.68;4.90;;;;;;;13.83;94.76;101767.63;4894348;29;20025;-93
2022/10/04 20:11:17;;;;;;;9.43;5.00;;;;;;;13.81;94.03;101756.28;4895975;29;20032;-93
2022/10/04 20:13:42;;;;;;;10.32;4.70;;;;;;;13.85;93.93;101762.78;4880390;29;20029;-92
2022/10/04 20:16:07;;;;;;;8.30;4.60;;;;;;;13.84;94.17;101754.97;4897021;29;20077;-92
2022/10/04 20:18:40;;;;;;;7.90;4.77;;;;;;;13.87;94.11;101757.97;4893807;29;20035;-92
2022/10/04 20:21:10;;;;;;;8.48;4.45;;;;;;;13.90;93.88;101762.00;4895101;29;20029;-93
2022/10/04 20:23:47;;;;;;;9.23;4.57;;;;;;;13.89;93.68;101755.81;4894326;29;20392;-91
2022/10/04 20:26:54;;;;;;;10.10;4.70;;;;;;;13.93;93.68;101758.81;4893867;29;20058;-91
2022/10/04 20:29:35;;;;;;;8.75;4.40;;;;;;;13.92;93.64;101752.63;4897079;29;20064;-90
2022/10/04 20:32:35;;;;;;;7.68;4.70;;;;;;;13.93;93.99;101753.41;4880161;29;20479;-91
2022/10/04 20:35:05;;;;;;;11.35;5.00;;;;;;;13.92;93.61;101751.78;4879477;29;20565;-92
2022/10/04 20:37:54;;;;;;;9.50;4.88;;;;;;;13.93;93.77;101754.25;4895070;29;20499;-93
2022/10/04 20:40:22;;;;;;;9.73;4.73;;;;;;;13.92;93.62;101752.63;4894880;29;20047;-91
2022/10/04 20:43:12;;;;;;;8.23;4.53;;;;;;;13.93;93.50;101758.81;4896767;29;20299;-90
2022/10/04 20:45:50;;;;;;;9.60;4.68;;;;;;;13.91;93.64;101750.16;4891087;29;20064;-92
2022/10/04 20:48:31;;;;;;;6.25;4.63;;;;;;;13.93;93.32;101751.56;4900359;29;20120;-89
2022/10/04 20:51:29;;;;;;;8.63;4.80;;;;;;;13.86;93.61;101744.75;4896531;29;20029;-90
2022/10/04 20:53:54;;;;;;;7.55;4.70;;;;;;;13.81;93.20;101739.31;4887565;29;20209;-88
2022/10/04 20:56:29;;;;;;;8.97;4.73;;;;;;;13.83;93.10;101742.56;4889897;29;20119;-88
2022/10/04 20:58:58;;;;;;;11.27;4.53;;;;;;;13.86;93.42;101755.53;4894854;29;20036;-88
2022/10/04 21:07:05;;;;;;;10.13;4.72;;;;;;;13.85;93.17;101756.59;4895494;29;20047;-88
2022/10/04 21:09:32;;;;;;;8.90;4.32;;;;;;;13.82;93.46;101759.81;4892286;29;20120;-88
2022/10/04 21:11:59;;;;;;;9.57;5.00;;;;;;;13.76;93.58;101757.06;4895007;29;20400;-88
2022/10/04 21:14:33;;;;;;;8.88;4.93;;;;;;;13.77;93.59;101750.59;4894762;29;20054;-88
2022/10/04 21:17:02;;;;;;;6.68;4.63;;;;;;;13.80;93.78;101761.94;4894755;29;20036;-88
2022/10/04 21:19:41;;;;;;;8.47;4.80;;;;;;;13.79;93.98;101747.66;4894562;29;20066;-88
2022/10/04 21:22:30;;;;;;;10.73;4.97;;;;;;;13.78;93.86;101751.44;4895055;29;20293;-87
2022/10/04 21:24:58;;;;;;;9.90;5.00;;;;;;;13.76;94.13;101754.38;4879462;29;20136;-86
2022/10/04 21:27:34;;;;;;;11.32;5.07;;;;;;;13.75;93.99;101746.56;4890157;29;20033;-85
2022/10/04 21:30:14;;;;;;;12.00;4.93;;;;;;;13.75;94.28;101749.25;4885265;29;20052;-86
2022/10/04 21:32:39;;;;;;;6.97;5.10;;;;;;;13.77;94.09;101750.59;4894157;29;20071;-86
2022/10/04 21:35:12;;;;;;;12.17;5.00;;;;;;;13.75;94.26;101746.56;4894223;29;20062;-86
2022/10/04 21:37:37;;;;;;;8.98;4.85;;;;;;;13.72;94.24;101742.47;4894213;29;20033;-86
2022/10/04 21:40:07;;;;;;;11.55;5.15;;;;;;;13.73;94.64;101749.50;4892000;29;20051;-86
2022/10/04 21:42:35;;;;;;;9.80;5.20;;;;;;;13.73;94.70;101757.56;4892990;29;20035;-87
2022/10/04 21:45:00;;;;;;;9.23;4.80;;;;;;;13.71;94.64;101756.22;4893224;29;20304;-85
2022/10/04 21:47:25;;;;;;;7.20;5.13;;;;;;;13.73;94.96;101760.25;4893090;29;20041;-85
2022/10/04 21:49:52;;;;;;;13.77;5.17;;;;;;;13.72;95.35;101755.94;4893845;29;20040;-86
2022/10/04 21:52:18;;;;;;;9.30;5.20;;;;;;;13.75;95.48;101763.50;4894063;29;20032;-86
2022/10/04 21:54:44;;;;;;;8.13;5.10;;;;;;;13.73;95.41;101757.56;4894248;29;20097;-86
2022/10/04 21:57:09;;;;;;;11.27;4.85;;;;;;;13.75;95.42;101768.91;4892981;29;20391;-86
2022/10/04 21:59:35;;;;;;;11.63;5.20;;;;;;;13.74;95.59;101763.78;4892471;29;20044;-86
2022/10/04 22:02:00;;;;;;;7.70;4.50;;;;;;;13.72;95.69;101766.72;4894577;29;20039;-86
2022/10/04 22:04:25;;;;;;;9.37;4.97;;;;;;;13.73;96.01;101765.66;4894556;29;20024;-86
2022/10/04 22:06:50;;;;;;;6.03;4.63;;;;;;;13.75;95.82;101760.81;4894011;29;20032;-85
2022/10/04 22:09:16;;;;;;;10.27;4.83;;;;;;;13.74;96.03;101764.59;4892067;29;20396;-87
2022/10/04 22:11:41;;;;;;;6.13;4.97;;;;;;;13.72;96.16;101755.94;4889910;29;20037;-87
2022/10/04 22:14:12;;;;;;;9.33;5.07;;;;;;;13.76;96.24;101756.25;4893522;29;20048;-87
2022/10/04 22:16:37;;;;;;;8.27;4.63;;;;;;;13.65;96.35;101741.91;4892963;29;20135;-88
2022/10/04 22:19:03;;;;;;;11.90;4.93;;;;;;;13.67;96.79;101742.47;4895333;29;20567;-87
2022/10/04 22:22:24;;;;;;;8.10;4.77;;;;;;;13.76;96.81;101754.38;4897813;29;20029;-87
2022/10/04 22:25:32;;;;;;;8.75;4.50;;;;;;;13.77;96.37;101757.91;4897002;29;20072;-87
2022/10/04 22:28:27;;;;;;;8.90;4.97;;;;;;;13.76;96.60;101753.56;4896800;29;20560;-87
2022/10/04 22:30:54;;;;;;;8.50;5.03;;;;;;;13.69;97.03;101743.00;4896646;29;20043;-87
2022/10/04 22:33:35;;;;;;;9.32;5.70;;;;;;;13.74;96.93;101756.50;4895382;29;20080;-87
2022/10/04 22:36:34;;;;;;;9.37;5.00;;;;;;;13.74;96.64;101764.59;4898539;29;20032;-86
2022/10/04 22:39:16;;;;;;;10.33;5.07;;;;;;;13.61;97.00;101735.41;4915005;23;20320;-88
2022/10/04 22:41:44;;;;;;;9.25;5.70;;;;;;;13.66;97.10;101746.22;4912057;29;20032;-87
2022/10/04 22:47:32;;;;;;;11.32;5.97;;;;;;;13.57;97.38;101713.56;4927906;23;20070;-87
2022/10/04 22:53:45;;;;;;;8.93;4.88;;;;;;;13.65;97.82;101717.66;4803498;29;20046;-88
2022/10/04 22:56:52;;;;;;;10.30;5.63;;;;;;;13.70;98.01;101728.44;4844097;29;20045;-87
2022/10/04 23:00:02;;;;;;;9.00;5.47;;;;;;;13.71;97.91;101732.78;4851927;29;20752;-88
2022/10/04 23:02:29;;;;;;;8.48;5.03;;;;;;;13.60;98.24;101704.94;4795006;29;20042;-87
2022/10/04 23:05:15;;;;;;;9.15;5.55;;;;;;;13.56;98.38;101692.25;4802668;29;20046;-88
2022/10/04 23:07:42;;;;;;;10.15;5.55;;;;;;;13.62;98.77;101699.31;4819746;29;20084;-87
2022/10/04 23:10:52;;;;;;;12.15;5.47;;;;;;;13.53;98.61;101679.31;4816023;29;20039;-88
2022/10/04 23:13:26;;;;;;;10.85;5.32;;;;;;;13.52;98.98;101677.69;4821392;29;20066;-87
2022/10/04 23:19:27;;;;;;;9.47;5.60;;;;;;;13.67;99.16;101702.06;4794654;29;20360;-88
2022/10/04 23:21:55;;;;;;;7.45;5.38;;;;;;;13.61;99.36;101693.09;4848802;29;20032;-87
2022/10/04 23:24:55;;;;;;;8.88;5.47;;;;;;;13.68;99.46;101700.16;4897051;29;20135;-88
